createdAt,value
2023-04-17T11:15:56.818Z,10.13
2023-04-17T11:18:27.076Z,11.27
2023-04-17T11:21:01.702Z,9.75
2023-04-17T11:23:39.394Z,11.23
2023-04-17T11:26:08.904Z,11.05
2023-04-17T11:28:42.433Z,16.20
2023-04-17T11:31:16.603Z,11.80
2023-04-17T11:33:50.278Z,10.45
2023-04-17T11:36:24.520Z,11.60
2023-04-17T11:38:57.960Z,10.05
2023-04-17T11:41:37.928Z,11.48
2023-04-17T11:44:13.932Z,10.55
2023-04-17T11:46:43.380Z,12.57
2023-04-17T11:49:15.753Z,14.02
2023-04-17T11:51:47.275Z,8.88
2023-04-17T11:54:42.539Z,12.55
2023-04-17T11:57:15.769Z,12.43
2023-04-17T11:59:47.771Z,10.52
2023-04-17T12:02:17.958Z,11.77
2023-04-17T12:04:50.499Z,11.02
2023-04-17T12:07:27.687Z,11.85
2023-04-17T12:09:59.416Z,10.90
2023-04-17T12:12:30.316Z,13.38
2023-04-17T12:15:02.387Z,10.82
2023-04-17T12:17:34.365Z,8.68
2023-04-17T12:20:05.725Z,10.40
2023-04-17T12:22:37.815Z,10.80
2023-04-17T12:25:10.024Z,12.55
2023-04-17T12:27:41.605Z,9.90
2023-04-17T12:30:12.566Z,9.85
2023-04-17T12:32:43.342Z,10.55
2023-04-17T12:35:19.978Z,10.50
2023-04-17T12:37:54.701Z,10.32
2023-04-17T12:40:26.428Z,8.65
2023-04-17T12:43:00.600Z,9.20
2023-04-17T12:45:34.357Z,11.07
2023-04-17T12:48:04.283Z,10.10
2023-04-17T12:50:33.554Z,7.97
2023-04-17T12:53:02.478Z,10.93
2023-04-17T12:55:41.419Z,8.65
2023-04-17T12:58:14.330Z,11.20
2023-04-17T13:00:46.515Z,10.43
2023-04-17T13:03:16.595Z,11.05
2023-04-17T13:05:49.649Z,12.10
2023-04-17T13:08:20.910Z,8.50
2023-04-17T13:10:49.773Z,13.77
2023-04-17T13:13:18.503Z,9.55
2023-04-17T13:15:49.177Z,10.82
2023-04-17T13:18:22.783Z,9.32
2023-04-17T13:20:54.540Z,10.77
2023-04-17T13:23:23.473Z,8.95
2023-04-17T13:25:56.772Z,10.10
2023-04-17T13:28:28.627Z,8.82
2023-04-17T13:30:57.910Z,9.65
2023-04-17T13:33:29.525Z,9.23
2023-04-17T13:35:58.713Z,12.07
2023-04-17T13:38:31.058Z,9.95
2023-04-17T13:41:01.655Z,14.07
2023-04-17T13:43:31.180Z,8.93
2023-04-17T13:46:06.866Z,10.57
2023-04-17T13:48:36.466Z,11.65
2023-04-17T13:51:05.724Z,9.15
2023-04-17T13:53:35.362Z,10.68
2023-04-17T13:56:09.942Z,9.82
2023-04-17T13:58:40.913Z,10.00
2023-04-17T14:01:15.196Z,10.43
2023-04-17T14:03:47.817Z,10.00
2023-04-17T14:06:19.966Z,9.82
2023-04-17T14:08:51.736Z,10.07
2023-04-17T14:11:21.616Z,11.68
2023-04-17T14:13:52.704Z,11.07
2023-04-17T14:16:25.677Z,11.00
2023-04-17T14:19:01.382Z,9.63
2023-04-17T14:21:36.530Z,7.72
2023-04-17T14:24:08.319Z,11.52
2023-04-17T14:26:40.130Z,10.93
2023-04-17T14:29:11.155Z,8.45
2023-04-17T14:31:40.679Z,8.45
2023-04-17T14:34:09.810Z,11.02
2023-04-17T14:36:43.900Z,8.80
2023-04-17T14:39:20.421Z,10.43
2023-04-17T14:41:53.934Z,9.05
2023-04-17T14:44:25.775Z,8.45
2023-04-17T14:46:57.340Z,10.63
2023-04-17T14:49:30.832Z,10.57
2023-04-17T14:52:09.334Z,10.13
2023-04-17T14:54:38.250Z,10.40
2023-04-17T14:57:07.216Z,9.27
2023-04-17T14:59:39.542Z,9.23
2023-04-17T15:02:11.382Z,9.90
2023-04-17T15:07:17.692Z,10.32
2023-04-17T15:09:47.442Z,7.95
2023-04-17T15:12:18.952Z,7.82
2023-04-17T15:14:47.911Z,9.43
2023-04-17T15:17:21.945Z,11.27
2023-04-17T15:19:55.378Z,9.13
2023-04-17T15:22:25.166Z,11.00
2023-04-17T15:24:57.641Z,10.70
2023-04-17T15:27:30.615Z,10.23
2023-04-17T15:29:59.948Z,10.48
2023-04-17T15:32:30.784Z,9.10
2023-04-17T15:34:59.974Z,9.27
2023-04-17T15:37:31.801Z,12.60
2023-04-17T15:40:08.036Z,9.52
2023-04-17T15:42:37.637Z,9.77
2023-04-17T15:45:09.981Z,8.88
2023-04-17T15:47:41.649Z,10.45
2023-04-17T15:50:12.087Z,13.23
2023-04-17T15:52:45.819Z,8.05
2023-04-17T15:55:17.855Z,11.48
2023-04-17T15:57:48.925Z,10.52
2023-04-17T16:00:23.907Z,8.88
2023-04-17T16:02:59.430Z,9.85
2023-04-17T16:05:29.920Z,10.68
2023-04-17T16:08:02.929Z,14.48
2023-04-17T16:10:35.718Z,10.75
2023-04-17T16:13:06.776Z,9.25
2023-04-17T16:15:35.949Z,11.05
2023-04-17T16:18:05.201Z,8.00
2023-04-17T16:20:34.276Z,9.35
2023-04-17T16:23:05.696Z,7.82
2023-04-17T16:25:34.845Z,8.23
2023-04-17T16:28:04.005Z,9.52
2023-04-17T16:30:36.421Z,10.07
2023-04-17T16:33:09.897Z,9.77
2023-04-17T16:35:39.057Z,8.52
2023-04-17T16:38:08.254Z,8.57
2023-04-17T16:40:40.712Z,10.80
2023-04-17T16:43:11.076Z,10.45
2023-04-17T16:45:43.762Z,9.57
2023-04-17T16:48:13.084Z,10.30
2023-04-17T16:50:42.253Z,9.90
2023-04-17T16:53:11.306Z,11.30
2023-04-17T16:55:42.667Z,9.48
2023-04-17T16:58:16.760Z,11.00
2023-04-17T17:00:45.868Z,12.57
2023-04-17T17:03:17.887Z,10.90
2023-04-17T17:05:47.223Z,12.07
2023-04-17T17:08:16.624Z,9.00
2023-04-17T17:10:51.869Z,15.15
2023-04-17T17:13:24.013Z,14.95
2023-04-17T17:15:56.416Z,18.25
2023-04-17T17:18:29.016Z,20.42
2023-04-17T17:21:00.519Z,17.45
2023-04-17T17:23:29.546Z,18.83
2023-04-17T17:26:01.896Z,19.33
2023-04-17T17:28:33.135Z,16.42
2023-04-17T17:31:05.099Z,16.77
2023-04-17T17:33:36.583Z,21.52
2023-04-17T17:36:06.052Z,17.15
2023-04-17T17:38:37.326Z,16.27
2023-04-17T17:41:13.713Z,16.45
2023-04-17T17:43:47.366Z,14.77
2023-04-17T17:46:22.046Z,15.82
2023-04-17T17:48:57.586Z,14.55
2023-04-17T17:51:29.129Z,15.63
2023-04-17T17:53:58.195Z,16.40
2023-04-17T17:56:29.520Z,10.95
2023-04-17T17:59:03.444Z,15.60
2023-04-17T18:01:36.457Z,13.18
2023-04-17T18:06:35.841Z,15.82
2023-04-17T18:09:05.413Z,14.48
2023-04-17T18:11:41.851Z,13.80
2023-04-17T18:14:17.516Z,16.80
2023-04-17T18:16:47.336Z,14.75
2023-04-17T18:19:19.735Z,13.50
2023-04-17T18:21:51.579Z,14.70
2023-04-17T18:24:23.742Z,14.02
2023-04-17T18:26:53.237Z,18.92
2023-04-17T18:29:25.713Z,15.55
2023-04-17T18:31:58.569Z,15.30
2023-04-17T18:34:30.000Z,13.10
2023-04-17T18:37:04.402Z,11.93
2023-04-17T18:39:33.547Z,10.85
2023-04-17T18:42:05.849Z,12.63
2023-04-17T18:44:37.901Z,10.38
2023-04-17T18:47:08.655Z,13.93
2023-04-17T18:49:43.542Z,11.85
2023-04-17T18:52:15.132Z,13.70
2023-04-17T18:54:47.909Z,14.07
2023-04-17T18:57:38.085Z,11.38
2023-04-17T19:00:08.228Z,15.40
2023-04-17T19:02:37.865Z,15.43
2023-04-17T19:05:08.142Z,15.68
2023-04-17T19:07:40.275Z,12.70
2023-04-17T19:10:11.364Z,14.13
2023-04-17T19:12:47.946Z,19.70
2023-04-17T19:15:21.689Z,14.50
2023-04-17T19:17:53.945Z,14.30
2023-04-17T19:20:23.925Z,16.02
2023-04-17T19:22:52.931Z,13.90
2023-04-17T19:25:25.330Z,18.23
2023-04-17T19:27:57.453Z,15.88
2023-04-17T19:30:27.319Z,12.38
2023-04-17T19:32:57.043Z,17.70
2023-04-17T19:35:30.238Z,18.30
2023-04-17T19:38:02.488Z,13.57
2023-04-17T19:40:31.870Z,11.88
2023-04-17T19:43:05.518Z,14.40
2023-04-17T19:45:35.892Z,11.93
2023-04-17T19:48:05.766Z,10.25
2023-04-17T19:50:35.196Z,9.13
2023-04-17T19:53:06.150Z,10.93
2023-04-17T19:55:38.793Z,17.40
2023-04-17T19:58:08.806Z,15.93
2023-04-17T20:00:38.435Z,13.68
2023-04-17T20:03:09.574Z,11.35
2023-04-17T20:05:44.138Z,14.27
2023-04-17T20:08:19.513Z,13.07
2023-04-17T20:10:52.447Z,11.43
2023-04-17T20:13:31.808Z,13.50
2023-04-17T20:16:04.519Z,12.05
2023-04-17T20:18:38.006Z,14.65
2023-04-17T20:21:08.037Z,12.60
2023-04-17T20:23:41.777Z,14.23
2023-04-17T20:26:21.504Z,14.10
2023-04-17T20:28:57.694Z,11.48
2023-04-17T20:31:27.451Z,12.23
2023-04-17T20:34:00.952Z,14.80
2023-04-17T20:36:32.741Z,10.48
2023-04-17T20:39:02.501Z,13.07
2023-04-17T20:41:36.794Z,12.88
2023-04-17T20:44:07.564Z,13.55
2023-04-17T20:46:39.373Z,23.05
2023-04-17T20:49:08.171Z,14.27
2023-04-17T20:51:37.712Z,17.20
2023-04-17T20:54:06.625Z,12.90
2023-04-17T20:56:40.290Z,15.40
2023-04-17T20:59:13.574Z,11.90
2023-04-17T21:01:45.638Z,11.80
2023-04-17T21:04:16.225Z,14.10
2023-04-17T21:06:47.568Z,13.85
2023-04-17T21:09:16.736Z,15.15
2023-04-17T21:11:45.582Z,11.98
2023-04-17T21:14:17.247Z,10.43
2023-04-17T21:16:46.233Z,11.20
2023-04-17T21:19:15.789Z,10.98
2023-04-17T21:21:44.760Z,10.65
2023-04-17T21:24:13.832Z,15.63
2023-04-17T21:26:48.256Z,13.07
2023-04-17T21:29:20.100Z,12.15
2023-04-17T21:31:52.048Z,12.48
2023-04-17T21:34:23.566Z,15.23
2023-04-17T21:36:55.078Z,12.63
2023-04-17T21:39:24.105Z,12.80
2023-04-17T21:41:55.228Z,12.52
2023-04-17T21:44:31.600Z,12.55
2023-04-17T21:47:02.958Z,9.80
2023-04-17T21:49:35.972Z,11.63
2023-04-17T21:52:05.053Z,8.75
2023-04-17T21:54:39.409Z,11.30
2023-04-17T21:57:08.456Z,11.73
2023-04-17T21:59:40.373Z,10.20
2023-04-17T22:02:11.700Z,13.05
2023-04-17T22:04:50.932Z,7.80
2023-04-17T22:07:21.802Z,8.98
2023-04-17T22:09:53.640Z,9.60
2023-04-17T22:12:26.236Z,9.18
2023-04-17T22:14:55.264Z,10.55
2023-04-17T22:17:24.464Z,7.18
2023-04-17T22:19:53.407Z,7.30
2023-04-17T22:22:25.567Z,8.63
2023-04-17T22:24:56.815Z,10.30
2023-04-17T22:27:25.955Z,10.70
2023-04-17T22:29:55.319Z,10.25
2023-04-17T22:32:24.486Z,9.27
2023-04-17T22:34:56.553Z,9.48
2023-04-17T22:37:26.392Z,10.57
2023-04-17T22:39:58.161Z,9.90
2023-04-17T22:42:27.098Z,8.05
2023-04-17T22:44:55.974Z,7.13
2023-04-17T22:47:34.793Z,9.15
2023-04-17T22:50:04.761Z,8.07
2023-04-17T22:52:40.520Z,8.27
2023-04-17T22:55:12.626Z,7.45
2023-04-17T22:57:45.016Z,7.57
2023-04-17T23:00:20.394Z,6.13
2023-04-17T23:02:54.918Z,8.45
2023-04-17T23:05:30.175Z,7.43
2023-04-17T23:08:01.225Z,7.72
2023-04-17T23:10:30.340Z,10.38
2023-04-17T23:12:58.948Z,9.85
2023-04-17T23:15:34.065Z,10.07
2023-04-17T23:18:02.927Z,11.82
2023-04-17T23:20:34.422Z,14.63
2023-04-17T23:23:06.171Z,15.70
2023-04-17T23:25:37.126Z,15.60
2023-04-17T23:28:10.477Z,15.18
2023-04-17T23:30:39.256Z,15.45
2023-04-17T23:33:08.231Z,18.00
2023-04-17T23:35:37.268Z,16.20
2023-04-17T23:38:09.448Z,14.32
2023-04-17T23:40:43.543Z,15.88
2023-04-17T23:43:14.329Z,15.63
2023-04-17T23:45:48.889Z,16.45
2023-04-17T23:48:17.820Z,16.70
2023-04-17T23:50:49.650Z,18.65
2023-04-17T23:53:20.616Z,13.68
2023-04-17T23:55:55.544Z,15.07
2023-04-17T23:58:26.779Z,14.40
